sensor_id;sensor_type;location;lat;lon;timestamp;P1;durP1;ratioP1;P2;durP2;ratioP2
77109;SDS011;66062;52.464;16.922;2024-03-08T00:01:13;41.87;;;14.90;;
77109;SDS011;66062;52.464;16.922;2024-03-08T00:03:38;37.27;;;15.40;;
77109;SDS011;66062;52.464;16.922;2024-03-08T00:06:05;46.10;;;17.83;;
77109;SDS011;66062;52.464;16.922;2024-03-08T00:08:31;46.35;;;17.40;;
77109;SDS011;66062;52.464;16.922;2024-03-08T00:10:56;43.83;;;17.55;;
77109;SDS011;66062;52.464;16.922;2024-03-08T00:13:23;41.20;;;15.67;;
77109;SDS011;66062;52.464;16.922;2024-03-08T00:15:53;39.78;;;15.88;;
77109;SDS011;66062;52.464;16.922;2024-03-08T00:18:18;37.28;;;16.23;;
77109;SDS011;66062;52.464;16.922;2024-03-08T00:20:43;45.58;;;17.00;;
77109;SDS011;66062;52.464;16.922;2024-03-08T00:23:10;41.45;;;15.73;;
77109;SDS011;66062;52.464;16.922;2024-03-08T00:25:36;40.40;;;15.75;;
77109;SDS011;66062;52.464;16.922;2024-03-08T00:28:01;34.80;;;16.33;;
77109;SDS011;66062;52.464;16.922;2024-03-08T00:30:27;41.53;;;16.48;;
77109;SDS011;66062;52.464;16.922;2024-03-08T00:32:52;41.60;;;15.45;;
77109;SDS011;66062;52.464;16.922;2024-03-08T00:35:18;37.50;;;15.27;;
77109;SDS011;66062;52.464;16.922;2024-03-08T00:37:43;41.13;;;16.30;;
77109;SDS011;66062;52.464;16.922;2024-03-08T00:40:11;45.17;;;16.55;;
77109;SDS011;66062;52.464;16.922;2024-03-08T00:42:37;37.20;;;16.45;;
77109;SDS011;66062;52.464;16.922;2024-03-08T00:45:03;41.20;;;16.25;;
77109;SDS011;66062;52.464;16.922;2024-03-08T00:47:29;40.30;;;15.75;;
77109;SDS011;66062;52.464;16.922;2024-03-08T00:49:54;41.27;;;16.43;;
77109;SDS011;66062;52.464;16.922;2024-03-08T00:52:21;40.20;;;16.50;;
77109;SDS011;66062;52.464;16.922;2024-03-08T00:54:49;42.70;;;16.17;;
77109;SDS011;66062;52.464;16.922;2024-03-08T00:57:14;42.53;;;16.98;;
77109;SDS011;66062;52.464;16.922;2024-03-08T00:59:39;42.97;;;15.90;;
77109;SDS011;66062;52.464;16.922;2024-03-08T01:02:05;40.85;;;16.45;;
77109;SDS011;66062;52.464;16.922;2024-03-08T01:04:31;47.55;;;19.63;;
77109;SDS011;66062;52.464;16.922;2024-03-08T01:06:57;38.53;;;15.98;;
77109;SDS011;66062;52.464;16.922;2024-03-08T01:09:22;44.53;;;16.63;;
77109;SDS011;66062;52.464;16.922;2024-03-08T01:11:48;38.25;;;15.13;;
77109;SDS011;66062;52.464;16.922;2024-03-08T01:14:14;42.10;;;15.77;;
77109;SDS011;66062;52.464;16.922;2024-03-08T01:16:39;40.50;;;16.08;;
77109;SDS011;66062;52.464;16.922;2024-03-08T01:19:05;35.73;;;15.80;;
77109;SDS011;66062;52.464;16.922;2024-03-08T01:21:30;39.55;;;15.18;;
77109;SDS011;66062;52.464;16.922;2024-03-08T01:23:55;34.03;;;16.85;;
77109;SDS011;66062;52.464;16.922;2024-03-08T01:26:21;36.40;;;14.73;;
77109;SDS011;66062;52.464;16.922;2024-03-08T01:28:46;39.03;;;16.40;;
77109;SDS011;66062;52.464;16.922;2024-03-08T01:31:11;33.87;;;14.47;;
77109;SDS011;66062;52.464;16.922;2024-03-08T01:33:37;41.80;;;17.60;;
77109;SDS011;66062;52.464;16.922;2024-03-08T01:36:02;36.75;;;14.50;;
77109;SDS011;66062;52.464;16.922;2024-03-08T01:38:28;35.05;;;15.07;;
77109;SDS011;66062;52.464;16.922;2024-03-08T01:40:53;34.63;;;15.63;;
77109;SDS011;66062;52.464;16.922;2024-03-08T01:43:19;36.88;;;16.35;;
77109;SDS011;66062;52.464;16.922;2024-03-08T01:45:44;38.45;;;15.70;;
77109;SDS011;66062;52.464;16.922;2024-03-08T01:48:10;43.00;;;16.52;;
77109;SDS011;66062;52.464;16.922;2024-03-08T01:50:35;37.65;;;15.68;;
77109;SDS011;66062;52.464;16.922;2024-03-08T01:53:01;39.33;;;15.95;;
77109;SDS011;66062;52.464;16.922;2024-03-08T01:55:27;34.30;;;14.68;;
77109;SDS011;66062;52.464;16.922;2024-03-08T01:57:52;36.60;;;15.07;;
77109;SDS011;66062;52.464;16.922;2024-03-08T02:00:18;34.47;;;15.02;;
77109;SDS011;66062;52.464;16.922;2024-03-08T02:02:44;38.33;;;15.32;;
77109;SDS011;66062;52.464;16.922;2024-03-08T02:05:11;39.40;;;15.15;;
77109;SDS011;66062;52.464;16.922;2024-03-08T02:07:40;36.92;;;16.02;;
77109;SDS011;66062;52.464;16.922;2024-03-08T02:10:08;37.78;;;15.98;;
77109;SDS011;66062;52.464;16.922;2024-03-08T02:12:34;35.20;;;16.37;;
77109;SDS011;66062;52.464;16.922;2024-03-08T02:14:59;38.65;;;15.20;;
77109;SDS011;66062;52.464;16.922;2024-03-08T02:17:24;36.78;;;16.02;;
77109;SDS011;66062;52.464;16.922;2024-03-08T02:19:50;42.97;;;16.07;;
77109;SDS011;66062;52.464;16.922;2024-03-08T02:22:15;34.63;;;14.87;;
77109;SDS011;66062;52.464;16.922;2024-03-08T02:24:40;32.45;;;15.48;;
77109;SDS011;66062;52.464;16.922;2024-03-08T02:27:06;40.53;;;14.95;;
77109;SDS011;66062;52.464;16.922;2024-03-08T02:29:31;39.95;;;16.23;;
77109;SDS011;66062;52.464;16.922;2024-03-08T02:31:57;37.28;;;15.70;;
77109;SDS011;66062;52.464;16.922;2024-03-08T02:34:23;33.75;;;14.98;;
77109;SDS011;66062;52.464;16.922;2024-03-08T02:36:48;34.58;;;15.68;;
77109;SDS011;66062;52.464;16.922;2024-03-08T02:39:13;33.63;;;16.03;;
77109;SDS011;66062;52.464;16.922;2024-03-08T02:41:39;40.63;;;15.27;;
77109;SDS011;66062;52.464;16.922;2024-03-08T02:44:04;34.97;;;14.48;;
77109;SDS011;66062;52.464;16.922;2024-03-08T02:46:29;38.97;;;14.57;;
77109;SDS011;66062;52.464;16.922;2024-03-08T02:48:55;37.15;;;14.95;;
77109;SDS011;66062;52.464;16.922;2024-03-08T02:51:20;33.33;;;14.88;;
77109;SDS011;66062;52.464;16.922;2024-03-08T02:53:46;37.20;;;15.83;;
77109;SDS011;66062;52.464;16.922;2024-03-08T02:56:13;36.38;;;16.77;;
77109;SDS011;66062;52.464;16.922;2024-03-08T02:58:41;38.65;;;16.10;;
77109;SDS011;66062;52.464;16.922;2024-03-08T03:01:07;36.80;;;15.43;;
77109;SDS011;66062;52.464;16.922;2024-03-08T03:03:33;36.97;;;15.68;;
77109;SDS011;66062;52.464;16.922;2024-03-08T03:05:58;39.92;;;16.65;;
77109;SDS011;66062;52.464;16.922;2024-03-08T03:08:24;33.22;;;15.18;;
77109;SDS011;66062;52.464;16.922;2024-03-08T03:10:50;35.88;;;15.18;;
77109;SDS011;66062;52.464;16.922;2024-03-08T03:13:15;37.50;;;15.07;;
77109;SDS011;66062;52.464;16.922;2024-03-08T03:15:41;37.87;;;15.00;;
77109;SDS011;66062;52.464;16.922;2024-03-08T03:18:09;39.08;;;14.80;;
77109;SDS011;66062;52.464;16.922;2024-03-08T03:20:34;40.00;;;17.08;;
77109;SDS011;66062;52.464;16.922;2024-03-08T03:23:05;35.78;;;15.52;;
77109;SDS011;66062;52.464;16.922;2024-03-08T03:25:33;42.13;;;16.35;;
77109;SDS011;66062;52.464;16.922;2024-03-08T03:28:00;33.38;;;15.07;;
77109;SDS011;66062;52.464;16.922;2024-03-08T03:30:25;36.05;;;15.50;;
77109;SDS011;66062;52.464;16.922;2024-03-08T03:32:58;34.13;;;15.35;;
77109;SDS011;66062;52.464;16.922;2024-03-08T03:35:25;43.40;;;16.75;;
77109;SDS011;66062;52.464;16.922;2024-03-08T03:37:50;40.33;;;15.60;;
77109;SDS011;66062;52.464;16.922;2024-03-08T03:40:34;42.38;;;16.52;;
77109;SDS011;66062;52.464;16.922;2024-03-08T03:43:00;35.03;;;15.48;;
77109;SDS011;66062;52.464;16.922;2024-03-08T03:45:26;37.70;;;16.05;;
77109;SDS011;66062;52.464;16.922;2024-03-08T03:47:51;36.13;;;15.20;;
77109;SDS011;66062;52.464;16.922;2024-03-08T03:50:20;35.90;;;14.57;;
77109;SDS011;66062;52.464;16.922;2024-03-08T03:52:48;46.33;;;16.00;;
77109;SDS011;66062;52.464;16.922;2024-03-08T03:55:14;36.88;;;14.80;;
77109;SDS011;66062;52.464;16.922;2024-03-08T03:57:40;36.88;;;16.33;;
77109;SDS011;66062;52.464;16.922;2024-03-08T04:00:05;38.40;;;16.10;;
77109;SDS011;66062;52.464;16.922;2024-03-08T04:02:31;37.03;;;16.92;;
77109;SDS011;66062;52.464;16.922;2024-03-08T04:04:56;39.00;;;16.23;;
77109;SDS011;66062;52.464;16.922;2024-03-08T04:07:22;35.63;;;14.60;;
77109;SDS011;66062;52.464;16.922;2024-03-08T04:09:47;39.63;;;15.23;;
77109;SDS011;66062;52.464;16.922;2024-03-08T04:12:12;36.30;;;15.93;;
77109;SDS011;66062;52.464;16.922;2024-03-08T04:14:41;74.13;;;27.20;;
77109;SDS011;66062;52.464;16.922;2024-03-08T04:17:06;52.70;;;19.75;;
77109;SDS011;66062;52.464;16.922;2024-03-08T04:19:33;43.80;;;16.45;;
77109;SDS011;66062;52.464;16.922;2024-03-08T04:21:59;36.45;;;16.45;;
77109;SDS011;66062;52.464;16.922;2024-03-08T04:24:26;46.22;;;16.23;;
77109;SDS011;66062;52.464;16.922;2024-03-08T04:26:51;41.60;;;16.43;;
77109;SDS011;66062;52.464;16.922;2024-03-08T04:29:16;38.55;;;15.65;;
77109;SDS011;66062;52.464;16.922;2024-03-08T04:31:42;34.13;;;17.23;;
77109;SDS011;66062;52.464;16.922;2024-03-08T04:34:07;35.80;;;15.00;;
77109;SDS011;66062;52.464;16.922;2024-03-08T04:36:33;38.40;;;15.88;;
77109;SDS011;66062;52.464;16.922;2024-03-08T04:38:59;35.30;;;16.02;;
77109;SDS011;66062;52.464;16.922;2024-03-08T04:41:25;39.05;;;14.50;;
77109;SDS011;66062;52.464;16.922;2024-03-08T04:43:50;40.45;;;17.52;;
77109;SDS011;66062;52.464;16.922;2024-03-08T04:46:17;39.22;;;17.25;;
77109;SDS011;66062;52.464;16.922;2024-03-08T04:48:42;36.13;;;16.23;;
77109;SDS011;66062;52.464;16.922;2024-03-08T04:51:08;37.35;;;16.42;;
77109;SDS011;66062;52.464;16.922;2024-03-08T04:53:34;41.88;;;16.67;;
77109;SDS011;66062;52.464;16.922;2024-03-08T04:55:59;39.17;;;16.70;;
77109;SDS011;66062;52.464;16.922;2024-03-08T04:58:25;38.72;;;17.52;;
77109;SDS011;66062;52.464;16.922;2024-03-08T05:00:50;39.77;;;18.17;;
77109;SDS011;66062;52.464;16.922;2024-03-08T05:03:15;39.53;;;17.85;;
77109;SDS011;66062;52.464;16.922;2024-03-08T05:05:41;37.13;;;16.67;;
77109;SDS011;66062;52.464;16.922;2024-03-08T05:08:06;43.97;;;16.48;;
77109;SDS011;66062;52.464;16.922;2024-03-08T05:10:31;55.03;;;23.00;;
77109;SDS011;66062;52.464;16.922;2024-03-08T05:12:57;39.60;;;17.63;;
77109;SDS011;66062;52.464;16.922;2024-03-08T05:15:22;37.92;;;16.45;;
77109;SDS011;66062;52.464;16.922;2024-03-08T05:17:48;42.22;;;16.55;;
77109;SDS011;66062;52.464;16.922;2024-03-08T05:20:13;37.60;;;16.33;;
77109;SDS011;66062;52.464;16.922;2024-03-08T05:22:39;35.97;;;14.47;;
77109;SDS011;66062;52.464;16.922;2024-03-08T05:25:05;40.10;;;18.08;;
77109;SDS011;66062;52.464;16.922;2024-03-08T05:27:33;39.15;;;14.85;;
77109;SDS011;66062;52.464;16.922;2024-03-08T05:29:58;37.35;;;17.02;;
77109;SDS011;66062;52.464;16.922;2024-03-08T05:32:24;40.35;;;17.00;;
77109;SDS011;66062;52.464;16.922;2024-03-08T05:34:50;36.17;;;16.67;;
77109;SDS011;66062;52.464;16.922;2024-03-08T05:37:15;40.00;;;17.05;;
77109;SDS011;66062;52.464;16.922;2024-03-08T05:39:40;41.78;;;18.27;;
77109;SDS011;66062;52.464;16.922;2024-03-08T05:42:06;39.93;;;17.07;;
77109;SDS011;66062;52.464;16.922;2024-03-08T05:44:33;34.72;;;16.33;;
77109;SDS011;66062;52.464;16.922;2024-03-08T05:46:58;39.57;;;16.93;;
77109;SDS011;66062;52.464;16.922;2024-03-08T05:49:26;44.15;;;18.13;;
77109;SDS011;66062;52.464;16.922;2024-03-08T05:51:52;41.57;;;17.23;;
77109;SDS011;66062;52.464;16.922;2024-03-08T05:54:19;42.67;;;17.75;;
77109;SDS011;66062;52.464;16.922;2024-03-08T05:56:47;40.42;;;16.85;;
77109;SDS011;66062;52.464;16.922;2024-03-08T05:59:12;42.10;;;17.70;;
77109;SDS011;66062;52.464;16.922;2024-03-08T06:01:38;45.35;;;17.80;;
77109;SDS011;66062;52.464;16.922;2024-03-08T06:04:05;43.38;;;18.02;;
77109;SDS011;66062;52.464;16.922;2024-03-08T06:06:31;43.58;;;17.80;;
77109;SDS011;66062;52.464;16.922;2024-03-08T06:08:56;42.08;;;17.17;;
77109;SDS011;66062;52.464;16.922;2024-03-08T06:11:23;46.65;;;17.10;;
77109;SDS011;66062;52.464;16.922;2024-03-08T06:13:49;50.25;;;20.05;;
77109;SDS011;66062;52.464;16.922;2024-03-08T06:16:15;39.80;;;17.98;;
77109;SDS011;66062;52.464;16.922;2024-03-08T06:18:40;48.47;;;19.77;;
77109;SDS011;66062;52.464;16.922;2024-03-08T06:21:06;44.75;;;19.50;;
77109;SDS011;66062;52.464;16.922;2024-03-08T06:23:32;44.85;;;19.05;;
77109;SDS011;66062;52.464;16.922;2024-03-08T06:25:57;36.33;;;17.13;;
77109;SDS011;66062;52.464;16.922;2024-03-08T06:28:23;39.70;;;17.13;;
77109;SDS011;66062;52.464;16.922;2024-03-08T06:30:48;33.80;;;16.35;;
77109;SDS011;66062;52.464;16.922;2024-03-08T06:35:41;34.65;;;16.85;;
77109;SDS011;66062;52.464;16.922;2024-03-08T06:38:06;39.10;;;17.63;;
77109;SDS011;66062;52.464;16.922;2024-03-08T06:40:32;37.20;;;17.07;;
77109;SDS011;66062;52.464;16.922;2024-03-08T06:42:57;38.13;;;17.25;;
77109;SDS011;66062;52.464;16.922;2024-03-08T06:45:22;39.28;;;17.45;;
77109;SDS011;66062;52.464;16.922;2024-03-08T06:47:49;38.63;;;19.10;;
77109;SDS011;66062;52.464;16.922;2024-03-08T06:50:15;37.40;;;17.83;;
77109;SDS011;66062;52.464;16.922;2024-03-08T06:52:40;39.05;;;18.52;;
77109;SDS011;66062;52.464;16.922;2024-03-08T06:55:07;40.25;;;18.23;;
77109;SDS011;66062;52.464;16.922;2024-03-08T06:57:32;36.42;;;18.15;;
77109;SDS011;66062;52.464;16.922;2024-03-08T06:59:57;40.50;;;17.57;;
77109;SDS011;66062;52.464;16.922;2024-03-08T07:02:23;39.80;;;18.17;;
77109;SDS011;66062;52.464;16.922;2024-03-08T07:04:51;38.78;;;19.35;;
77109;SDS011;66062;52.464;16.922;2024-03-08T07:07:18;36.60;;;19.83;;
77109;SDS011;66062;52.464;16.922;2024-03-08T07:09:45;40.30;;;19.38;;
77109;SDS011;66062;52.464;16.922;2024-03-08T07:12:10;43.83;;;24.42;;
77109;SDS011;66062;52.464;16.922;2024-03-08T07:14:38;43.45;;;20.48;;
77109;SDS011;66062;52.464;16.922;2024-03-08T07:17:05;37.28;;;18.75;;
77109;SDS011;66062;52.464;16.922;2024-03-08T07:19:32;42.88;;;21.63;;
77109;SDS011;66062;52.464;16.922;2024-03-08T07:21:57;41.50;;;21.30;;
77109;SDS011;66062;52.464;16.922;2024-03-08T07:24:22;34.30;;;19.33;;
77109;SDS011;66062;52.464;16.922;2024-03-08T07:27:13;38.85;;;19.45;;
77109;SDS011;66062;52.464;16.922;2024-03-08T07:29:39;41.40;;;19.95;;
77109;SDS011;66062;52.464;16.922;2024-03-08T07:32:04;35.22;;;20.25;;
77109;SDS011;66062;52.464;16.922;2024-03-08T07:34:49;37.05;;;19.60;;
77109;SDS011;66062;52.464;16.922;2024-03-08T07:37:18;39.70;;;20.00;;
77109;SDS011;66062;52.464;16.922;2024-03-08T07:39:44;37.83;;;20.40;;
77109;SDS011;66062;52.464;16.922;2024-03-08T07:42:09;39.65;;;21.10;;
77109;SDS011;66062;52.464;16.922;2024-03-08T07:44:37;40.10;;;19.35;;
77109;SDS011;66062;52.464;16.922;2024-03-08T07:47:03;36.83;;;20.40;;
77109;SDS011;66062;52.464;16.922;2024-03-08T07:49:29;41.15;;;20.77;;
77109;SDS011;66062;52.464;16.922;2024-03-08T07:51:55;35.65;;;19.23;;
77109;SDS011;66062;52.464;16.922;2024-03-08T07:54:20;35.63;;;19.85;;
77109;SDS011;66062;52.464;16.922;2024-03-08T07:56:45;36.25;;;19.13;;
77109;SDS011;66062;52.464;16.922;2024-03-08T07:59:10;34.13;;;19.13;;
77109;SDS011;66062;52.464;16.922;2024-03-08T08:01:37;36.80;;;17.67;;
77109;SDS011;66062;52.464;16.922;2024-03-08T08:04:02;30.90;;;17.80;;
77109;SDS011;66062;52.464;16.922;2024-03-08T08:06:27;34.13;;;19.67;;
77109;SDS011;66062;52.464;16.922;2024-03-08T08:08:56;39.60;;;21.55;;
77109;SDS011;66062;52.464;16.922;2024-03-08T08:11:22;37.00;;;19.20;;
77109;SDS011;66062;52.464;16.922;2024-03-08T08:13:47;42.88;;;20.55;;
77109;SDS011;66062;52.464;16.922;2024-03-08T08:16:12;39.58;;;20.20;;
77109;SDS011;66062;52.464;16.922;2024-03-08T08:18:38;34.67;;;18.70;;
77109;SDS011;66062;52.464;16.922;2024-03-08T08:21:04;34.83;;;18.55;;
77109;SDS011;66062;52.464;16.922;2024-03-08T08:28:21;38.53;;;18.27;;
77109;SDS011;66062;52.464;16.922;2024-03-08T08:30:47;34.80;;;18.15;;
77109;SDS011;66062;52.464;16.922;2024-03-08T08:33:13;37.38;;;19.80;;
77109;SDS011;66062;52.464;16.922;2024-03-08T08:35:39;35.40;;;18.25;;
77109;SDS011;66062;52.464;16.922;2024-03-08T08:38:04;33.17;;;17.60;;
77109;SDS011;66062;52.464;16.922;2024-03-08T08:40:29;35.75;;;19.02;;
77109;SDS011;66062;52.464;16.922;2024-03-08T08:42:57;39.22;;;19.05;;
77109;SDS011;66062;52.464;16.922;2024-03-08T08:45:25;34.95;;;17.27;;
77109;SDS011;66062;52.464;16.922;2024-03-08T08:47:51;31.90;;;18.52;;
77109;SDS011;66062;52.464;16.922;2024-03-08T08:50:16;35.78;;;17.52;;
77109;SDS011;66062;52.464;16.922;2024-03-08T08:52:47;33.35;;;17.15;;
77109;SDS011;66062;52.464;16.922;2024-03-08T08:55:13;33.17;;;17.83;;
77109;SDS011;66062;52.464;16.922;2024-03-08T08:57:40;35.50;;;17.35;;
77109;SDS011;66062;52.464;16.922;2024-03-08T09:00:06;32.40;;;17.00;;
77109;SDS011;66062;52.464;16.922;2024-03-08T09:02:40;34.45;;;17.25;;
77109;SDS011;66062;52.464;16.922;2024-03-08T09:05:06;28.88;;;15.88;;
77109;SDS011;66062;52.464;16.922;2024-03-08T09:07:32;28.10;;;14.95;;
77109;SDS011;66062;52.464;16.922;2024-03-08T09:09:58;25.95;;;15.10;;
77109;SDS011;66062;52.464;16.922;2024-03-08T09:12:24;21.23;;;12.48;;
77109;SDS011;66062;52.464;16.922;2024-03-08T09:14:49;23.30;;;13.77;;
77109;SDS011;66062;52.464;16.922;2024-03-08T09:17:15;22.25;;;11.43;;
77109;SDS011;66062;52.464;16.922;2024-03-08T09:19:45;25.05;;;11.90;;
77109;SDS011;66062;52.464;16.922;2024-03-08T09:22:10;20.63;;;12.07;;
77109;SDS011;66062;52.464;16.922;2024-03-08T09:24:36;22.67;;;11.63;;
77109;SDS011;66062;52.464;16.922;2024-03-08T09:27:01;20.00;;;12.30;;
77109;SDS011;66062;52.464;16.922;2024-03-08T09:29:26;22.10;;;11.33;;
77109;SDS011;66062;52.464;16.922;2024-03-08T09:31:51;23.02;;;11.35;;
77109;SDS011;66062;52.464;16.922;2024-03-08T09:34:17;18.70;;;10.80;;
77109;SDS011;66062;52.464;16.922;2024-03-08T09:36:43;18.17;;;10.55;;
77109;SDS011;66062;52.464;16.922;2024-03-08T09:39:09;20.13;;;11.20;;
77109;SDS011;66062;52.464;16.922;2024-03-08T09:41:34;20.37;;;11.10;;
77109;SDS011;66062;52.464;16.922;2024-03-08T09:44:00;17.83;;;10.15;;
77109;SDS011;66062;52.464;16.922;2024-03-08T09:46:25;19.50;;;11.10;;
77109;SDS011;66062;52.464;16.922;2024-03-08T09:48:52;19.80;;;9.73;;
77109;SDS011;66062;52.464;16.922;2024-03-08T09:51:17;22.42;;;11.30;;
77109;SDS011;66062;52.464;16.922;2024-03-08T09:53:44;17.63;;;10.55;;
77109;SDS011;66062;52.464;16.922;2024-03-08T09:56:11;19.88;;;9.82;;
77109;SDS011;66062;52.464;16.922;2024-03-08T09:58:37;17.77;;;9.80;;
77109;SDS011;66062;52.464;16.922;2024-03-08T10:01:16;15.68;;;9.32;;
77109;SDS011;66062;52.464;16.922;2024-03-08T10:03:41;19.27;;;10.60;;
77109;SDS011;66062;52.464;16.922;2024-03-08T10:06:07;19.23;;;10.20;;
77109;SDS011;66062;52.464;16.922;2024-03-08T10:08:35;18.05;;;9.05;;
77109;SDS011;66062;52.464;16.922;2024-03-08T10:11:01;18.00;;;8.85;;
77109;SDS011;66062;52.464;16.922;2024-03-08T10:13:26;19.60;;;9.37;;
77109;SDS011;66062;52.464;16.922;2024-03-08T10:15:53;17.58;;;9.75;;
77109;SDS011;66062;52.464;16.922;2024-03-08T10:18:18;17.95;;;9.05;;
77109;SDS011;66062;52.464;16.922;2024-03-08T10:20:43;17.85;;;8.80;;
77109;SDS011;66062;52.464;16.922;2024-03-08T10:23:09;19.25;;;11.13;;
77109;SDS011;66062;52.464;16.922;2024-03-08T10:25:35;17.55;;;9.48;;
77109;SDS011;66062;52.464;16.922;2024-03-08T10:28:02;15.65;;;10.25;;
77109;SDS011;66062;52.464;16.922;2024-03-08T10:30:29;16.08;;;9.07;;
77109;SDS011;66062;52.464;16.922;2024-03-08T10:32:54;18.65;;;8.70;;
77109;SDS011;66062;52.464;16.922;2024-03-08T10:35:19;17.13;;;9.07;;
77109;SDS011;66062;52.464;16.922;2024-03-08T10:37:49;16.75;;;8.98;;
77109;SDS011;66062;52.464;16.922;2024-03-08T10:40:22;14.90;;;8.90;;
77109;SDS011;66062;52.464;16.922;2024-03-08T10:47:47;18.08;;;8.77;;
77109;SDS011;66062;52.464;16.922;2024-03-08T10:50:20;19.38;;;9.93;;
77109;SDS011;66062;52.464;16.922;2024-03-08T10:52:50;18.05;;;9.32;;
77109;SDS011;66062;52.464;16.922;2024-03-08T10:55:17;16.90;;;8.88;;
77109;SDS011;66062;52.464;16.922;2024-03-08T10:57:42;21.40;;;10.30;;
77109;SDS011;66062;52.464;16.922;2024-03-08T11:00:08;19.77;;;9.05;;
77109;SDS011;66062;52.464;16.922;2024-03-08T11:02:36;17.58;;;10.13;;
77109;SDS011;66062;52.464;16.922;2024-03-08T11:05:03;17.15;;;8.82;;
77109;SDS011;66062;52.464;16.922;2024-03-08T11:07:30;18.75;;;10.25;;
77109;SDS011;66062;52.464;16.922;2024-03-08T11:09:59;17.05;;;9.00;;
77109;SDS011;66062;52.464;16.922;2024-03-08T11:12:29;17.65;;;9.10;;
77109;SDS011;66062;52.464;16.922;2024-03-08T11:15:01;17.10;;;9.52;;
77109;SDS011;66062;52.464;16.922;2024-03-08T11:19:58;15.30;;;8.20;;
77109;SDS011;66062;52.464;16.922;2024-03-08T11:22:27;15.65;;;8.40;;
77109;SDS011;66062;52.464;16.922;2024-03-08T11:24:53;21.58;;;8.18;;
77109;SDS011;66062;52.464;16.922;2024-03-08T11:27:18;17.92;;;9.23;;
77109;SDS011;66062;52.464;16.922;2024-03-08T11:29:46;15.25;;;7.93;;
77109;SDS011;66062;52.464;16.922;2024-03-08T11:32:27;15.10;;;7.60;;
77109;SDS011;66062;52.464;16.922;2024-03-08T11:34:53;16.25;;;8.13;;
77109;SDS011;66062;52.464;16.922;2024-03-08T11:37:19;13.55;;;7.90;;
77109;SDS011;66062;52.464;16.922;2024-03-08T11:39:52;14.07;;;7.80;;
77109;SDS011;66062;52.464;16.922;2024-03-08T11:42:18;17.95;;;8.68;;
77109;SDS011;66062;52.464;16.922;2024-03-08T11:44:44;12.93;;;7.80;;
77109;SDS011;66062;52.464;16.922;2024-03-08T11:47:10;14.70;;;7.85;;
77109;SDS011;66062;52.464;16.922;2024-03-08T11:49:36;13.38;;;7.22;;
77109;SDS011;66062;52.464;16.922;2024-03-08T11:52:01;18.30;;;9.98;;
77109;SDS011;66062;52.464;16.922;2024-03-08T11:54:27;14.48;;;7.45;;
77109;SDS011;66062;52.464;16.922;2024-03-08T11:56:54;14.20;;;7.50;;
77109;SDS011;66062;52.464;16.922;2024-03-08T11:59:20;13.00;;;7.28;;
77109;SDS011;66062;52.464;16.922;2024-03-08T12:01:56;14.77;;;7.20;;
77109;SDS011;66062;52.464;16.922;2024-03-08T12:04:22;15.00;;;6.65;;
77109;SDS011;66062;52.464;16.922;2024-03-08T12:06:49;14.77;;;7.35;;
77109;SDS011;66062;52.464;16.922;2024-03-08T12:09:15;13.68;;;6.45;;
77109;SDS011;66062;52.464;16.922;2024-03-08T12:11:41;13.93;;;8.68;;
77109;SDS011;66062;52.464;16.922;2024-03-08T12:14:08;15.10;;;8.07;;
77109;SDS011;66062;52.464;16.922;2024-03-08T12:16:38;16.08;;;7.75;;
77109;SDS011;66062;52.464;16.922;2024-03-08T12:19:03;12.95;;;6.88;;
77109;SDS011;66062;52.464;16.922;2024-03-08T12:21:31;14.93;;;7.07;;
77109;SDS011;66062;52.464;16.922;2024-03-08T12:24:01;19.25;;;7.78;;
77109;SDS011;66062;52.464;16.922;2024-03-08T12:26:27;13.57;;;7.72;;
77109;SDS011;66062;52.464;16.922;2024-03-08T12:28:53;15.38;;;8.55;;
77109;SDS011;66062;52.464;16.922;2024-03-08T12:31:18;13.98;;;9.13;;
77109;SDS011;66062;52.464;16.922;2024-03-08T12:36:16;14.38;;;7.68;;
77109;SDS011;66062;52.464;16.922;2024-03-08T12:38:48;12.05;;;6.60;;
77109;SDS011;66062;52.464;16.922;2024-03-08T12:41:14;14.13;;;6.85;;
77109;SDS011;66062;52.464;16.922;2024-03-08T12:43:39;13.45;;;7.28;;
77109;SDS011;66062;52.464;16.922;2024-03-08T12:46:04;17.83;;;7.03;;
77109;SDS011;66062;52.464;16.922;2024-03-08T12:48:33;17.30;;;8.35;;
77109;SDS011;66062;52.464;16.922;2024-03-08T12:50:59;16.17;;;7.75;;
77109;SDS011;66062;52.464;16.922;2024-03-08T12:53:24;15.20;;;8.13;;
77109;SDS011;66062;52.464;16.922;2024-03-08T12:55:50;15.50;;;8.15;;
77109;SDS011;66062;52.464;16.922;2024-03-08T12:58:15;15.97;;;9.27;;
77109;SDS011;66062;52.464;16.922;2024-03-08T13:00:41;15.45;;;7.82;;
77109;SDS011;66062;52.464;16.922;2024-03-08T13:03:08;15.38;;;8.23;;
77109;SDS011;66062;52.464;16.922;2024-03-08T13:05:35;14.77;;;8.43;;
77109;SDS011;66062;52.464;16.922;2024-03-08T13:08:04;19.25;;;10.02;;
77109;SDS011;66062;52.464;16.922;2024-03-08T13:10:30;26.92;;;15.63;;
77109;SDS011;66062;52.464;16.922;2024-03-08T13:12:55;14.27;;;7.90;;
77109;SDS011;66062;52.464;16.922;2024-03-08T13:15:21;15.55;;;8.18;;
77109;SDS011;66062;52.464;16.922;2024-03-08T13:17:47;14.93;;;7.93;;
77109;SDS011;66062;52.464;16.922;2024-03-08T13:20:13;17.65;;;7.40;;
77109;SDS011;66062;52.464;16.922;2024-03-08T13:22:41;14.45;;;7.20;;
77109;SDS011;66062;52.464;16.922;2024-03-08T13:25:07;13.97;;;9.10;;
77109;SDS011;66062;52.464;16.922;2024-03-08T13:27:38;16.80;;;8.77;;
77109;SDS011;66062;52.464;16.922;2024-03-08T13:30:04;13.77;;;8.02;;
77109;SDS011;66062;52.464;16.922;2024-03-08T13:32:29;13.88;;;7.75;;
77109;SDS011;66062;52.464;16.922;2024-03-08T13:34:56;15.43;;;8.35;;
77109;SDS011;66062;52.464;16.922;2024-03-08T13:37:21;14.98;;;8.15;;
77109;SDS011;66062;52.464;16.922;2024-03-08T13:39:47;16.23;;;7.77;;
77109;SDS011;66062;52.464;16.922;2024-03-08T13:42:12;15.77;;;8.43;;
77109;SDS011;66062;52.464;16.922;2024-03-08T13:44:47;13.82;;;7.85;;
77109;SDS011;66062;52.464;16.922;2024-03-08T13:47:13;15.15;;;8.23;;
77109;SDS011;66062;52.464;16.922;2024-03-08T13:49:39;15.05;;;7.38;;
77109;SDS011;66062;52.464;16.922;2024-03-08T13:52:04;16.52;;;8.90;;
77109;SDS011;66062;52.464;16.922;2024-03-08T13:54:30;16.40;;;7.72;;
77109;SDS011;66062;52.464;16.922;2024-03-08T13:56:56;14.63;;;8.10;;
77109;SDS011;66062;52.464;16.922;2024-03-08T13:59:22;14.20;;;7.60;;
77109;SDS011;66062;52.464;16.922;2024-03-08T14:01:48;13.15;;;8.45;;
77109;SDS011;66062;52.464;16.922;2024-03-08T14:04:14;16.15;;;7.60;;
77109;SDS011;66062;52.464;16.922;2024-03-08T14:06:39;13.48;;;7.53;;
77109;SDS011;66062;52.464;16.922;2024-03-08T14:09:04;14.33;;;7.53;;
77109;SDS011;66062;52.464;16.922;2024-03-08T14:11:32;14.50;;;8.52;;
77109;SDS011;66062;52.464;16.922;2024-03-08T14:13:58;15.27;;;7.88;;
77109;SDS011;66062;52.464;16.922;2024-03-08T14:16:23;16.38;;;7.22;;
77109;SDS011;66062;52.464;16.922;2024-03-08T14:18:49;15.25;;;7.35;;
77109;SDS011;66062;52.464;16.922;2024-03-08T14:21:14;13.70;;;8.43;;
77109;SDS011;66062;52.464;16.922;2024-03-08T14:23:42;14.57;;;7.78;;
77109;SDS011;66062;52.464;16.922;2024-03-08T14:26:08;14.15;;;7.00;;